sensor_id;sensor_type;location;lat;lon;timestamp;P1;durP1;ratioP1;P2;durP2;ratioP2
23376;SDS011;14353;46.070;13.222;2024-03-29T00:02:05;1.67;;;1.40;;
23376;SDS011;14353;46.070;13.222;2024-03-29T00:04:31;1.75;;;1.60;;
23376;SDS011;14353;46.070;13.222;2024-03-29T00:06:57;2.38;;;1.75;;
23376;SDS011;14353;46.070;13.222;2024-03-29T00:09:23;1.60;;;1.50;;
23376;SDS011;14353;46.070;13.222;2024-03-29T00:11:48;1.45;;;1.35;;
23376;SDS011;14353;46.070;13.222;2024-03-29T00:14:14;1.80;;;1.40;;
23376;SDS011;14353;46.070;13.222;2024-03-29T00:16:40;1.58;;;1.48;;
23376;SDS011;14353;46.070;13.222;2024-03-29T00:19:05;1.85;;;1.52;;
23376;SDS011;14353;46.070;13.222;2024-03-29T00:21:31;2.35;;;1.50;;
23376;SDS011;14353;46.070;13.222;2024-03-29T00:23:57;1.75;;;1.65;;
23376;SDS011;14353;46.070;13.222;2024-03-29T00:26:22;2.13;;;1.90;;
23376;SDS011;14353;46.070;13.222;2024-03-29T00:28:48;2.33;;;1.88;;
23376;SDS011;14353;46.070;13.222;2024-03-29T00:31:14;2.00;;;1.77;;
23376;SDS011;14353;46.070;13.222;2024-03-29T00:33:40;2.25;;;1.77;;
23376;SDS011;14353;46.070;13.222;2024-03-29T00:36:06;1.70;;;1.60;;
23376;SDS011;14353;46.070;13.222;2024-03-29T00:38:32;1.80;;;1.70;;
23376;SDS011;14353;46.070;13.222;2024-03-29T00:40:58;1.98;;;1.63;;
23376;SDS011;14353;46.070;13.222;2024-03-29T00:43:23;1.90;;;1.70;;
23376;SDS011;14353;46.070;13.222;2024-03-29T00:45:52;1.75;;;1.63;;
23376;SDS011;14353;46.070;13.222;2024-03-29T00:48:17;1.70;;;1.60;;
23376;SDS011;14353;46.070;13.222;2024-03-29T00:50:45;1.52;;;1.42;;
23376;SDS011;14353;46.070;13.222;2024-03-29T00:53:10;2.10;;;1.50;;
23376;SDS011;14353;46.070;13.222;2024-03-29T00:55:36;2.08;;;1.65;;
23376;SDS011;14353;46.070;13.222;2024-03-29T00:58:02;1.60;;;1.50;;
23376;SDS011;14353;46.070;13.222;2024-03-29T01:00:28;1.60;;;1.42;;
23376;SDS011;14353;46.070;13.222;2024-03-29T01:02:54;1.80;;;1.50;;
23376;SDS011;14353;46.070;13.222;2024-03-29T01:05:19;2.00;;;1.80;;
23376;SDS011;14353;46.070;13.222;2024-03-29T01:07:45;1.70;;;1.60;;
23376;SDS011;14353;46.070;13.222;2024-03-29T01:10:11;1.77;;;1.67;;
23376;SDS011;14353;46.070;13.222;2024-03-29T01:12:37;1.77;;;1.60;;
23376;SDS011;14353;46.070;13.222;2024-03-29T01:15:04;1.95;;;1.70;;
23376;SDS011;14353;46.070;13.222;2024-03-29T01:17:31;2.25;;;1.70;;
23376;SDS011;14353;46.070;13.222;2024-03-29T01:19:56;2.40;;;1.63;;
23376;SDS011;14353;46.070;13.222;2024-03-29T01:22:22;2.28;;;1.80;;
23376;SDS011;14353;46.070;13.222;2024-03-29T01:24:48;2.15;;;1.95;;
23376;SDS011;14353;46.070;13.222;2024-03-29T01:27:14;1.73;;;1.50;;
23376;SDS011;14353;46.070;13.222;2024-03-29T01:29:39;2.05;;;1.83;;
23376;SDS011;14353;46.070;13.222;2024-03-29T01:32:05;1.90;;;1.70;;
23376;SDS011;14353;46.070;13.222;2024-03-29T01:34:31;2.03;;;1.83;;
23376;SDS011;14353;46.070;13.222;2024-03-29T01:36:58;1.80;;;1.70;;
23376;SDS011;14353;46.070;13.222;2024-03-29T01:39:23;1.92;;;1.55;;
23376;SDS011;14353;46.070;13.222;2024-03-29T01:41:54;1.80;;;1.60;;
23376;SDS011;14353;46.070;13.222;2024-03-29T01:44:20;2.25;;;1.92;;
23376;SDS011;14353;46.070;13.222;2024-03-29T01:46:46;1.65;;;1.55;;
23376;SDS011;14353;46.070;13.222;2024-03-29T01:49:12;1.77;;;1.40;;
23376;SDS011;14353;46.070;13.222;2024-03-29T01:51:38;1.67;;;1.58;;
23376;SDS011;14353;46.070;13.222;2024-03-29T01:54:05;2.40;;;1.80;;
23376;SDS011;14353;46.070;13.222;2024-03-29T01:56:34;1.95;;;1.60;;
23376;SDS011;14353;46.070;13.222;2024-03-29T01:59:00;1.83;;;1.60;;
23376;SDS011;14353;46.070;13.222;2024-03-29T02:01:28;2.22;;;1.60;;
23376;SDS011;14353;46.070;13.222;2024-03-29T02:03:56;1.80;;;1.70;;
23376;SDS011;14353;46.070;13.222;2024-03-29T02:06:22;2.45;;;1.75;;
23376;SDS011;14353;46.070;13.222;2024-03-29T02:08:57;2.30;;;1.67;;
23376;SDS011;14353;46.070;13.222;2024-03-29T02:11:22;1.98;;;1.67;;
23376;SDS011;14353;46.070;13.222;2024-03-29T02:13:49;1.55;;;1.45;;
23376;SDS011;14353;46.070;13.222;2024-03-29T02:16:15;1.70;;;1.60;;
23376;SDS011;14353;46.070;13.222;2024-03-29T02:18:41;1.90;;;1.70;;
23376;SDS011;14353;46.070;13.222;2024-03-29T02:21:07;2.08;;;1.80;;
23376;SDS011;14353;46.070;13.222;2024-03-29T02:23:33;2.00;;;1.70;;
23376;SDS011;14353;46.070;13.222;2024-03-29T02:26:02;2.10;;;1.60;;
23376;SDS011;14353;46.070;13.222;2024-03-29T02:28:29;1.70;;;1.60;;
23376;SDS011;14353;46.070;13.222;2024-03-29T02:30:58;1.83;;;1.50;;
23376;SDS011;14353;46.070;13.222;2024-03-29T02:33:24;1.83;;;1.70;;
23376;SDS011;14353;46.070;13.222;2024-03-29T02:35:50;1.85;;;1.70;;
23376;SDS011;14353;46.070;13.222;2024-03-29T02:38:16;1.80;;;1.50;;
23376;SDS011;14353;46.070;13.222;2024-03-29T02:40:41;2.40;;;1.80;;
23376;SDS011;14353;46.070;13.222;2024-03-29T02:43:07;2.10;;;1.70;;
23376;SDS011;14353;46.070;13.222;2024-03-29T02:45:33;2.47;;;1.80;;
23376;SDS011;14353;46.070;13.222;2024-03-29T02:47:58;2.10;;;1.90;;
23376;SDS011;14353;46.070;13.222;2024-03-29T02:50:24;1.90;;;1.70;;
23376;SDS011;14353;46.070;13.222;2024-03-29T02:52:50;2.22;;;1.60;;
23376;SDS011;14353;46.070;13.222;2024-03-29T02:55:15;1.83;;;1.67;;
23376;SDS011;14353;46.070;13.222;2024-03-29T02:57:41;1.90;;;1.70;;
23376;SDS011;14353;46.070;13.222;2024-03-29T03:00:07;2.05;;;1.80;;
23376;SDS011;14353;46.070;13.222;2024-03-29T03:02:39;2.20;;;1.90;;
23376;SDS011;14353;46.070;13.222;2024-03-29T03:05:05;1.58;;;1.48;;
23376;SDS011;14353;46.070;13.222;2024-03-29T03:07:32;1.92;;;1.63;;
23376;SDS011;14353;46.070;13.222;2024-03-29T03:10:17;2.20;;;1.60;;
23376;SDS011;14353;46.070;13.222;2024-03-29T03:13:02;1.70;;;1.60;;
23376;SDS011;14353;46.070;13.222;2024-03-29T03:15:28;1.95;;;1.75;;
23376;SDS011;14353;46.070;13.222;2024-03-29T03:17:53;2.20;;;1.65;;
23376;SDS011;14353;46.070;13.222;2024-03-29T03:20:19;2.25;;;1.90;;
23376;SDS011;14353;46.070;13.222;2024-03-29T03:22:45;2.03;;;1.70;;
23376;SDS011;14353;46.070;13.222;2024-03-29T03:25:10;1.70;;;1.60;;
23376;SDS011;14353;46.070;13.222;2024-03-29T03:27:36;1.65;;;1.55;;
23376;SDS011;14353;46.070;13.222;2024-03-29T03:30:02;1.70;;;1.60;;
23376;SDS011;14353;46.070;13.222;2024-03-29T03:32:28;2.30;;;1.67;;
23376;SDS011;14353;46.070;13.222;2024-03-29T03:34:54;1.80;;;1.70;;
23376;SDS011;14353;46.070;13.222;2024-03-29T03:37:19;2.70;;;1.90;;
23376;SDS011;14353;46.070;13.222;2024-03-29T03:39:45;1.83;;;1.63;;
23376;SDS011;14353;46.070;13.222;2024-03-29T03:42:11;1.70;;;1.40;;
23376;SDS011;14353;46.070;13.222;2024-03-29T03:44:36;1.80;;;1.55;;
23376;SDS011;14353;46.070;13.222;2024-03-29T03:47:02;2.25;;;1.80;;
23376;SDS011;14353;46.070;13.222;2024-03-29T03:49:28;2.15;;;1.70;;
23376;SDS011;14353;46.070;13.222;2024-03-29T03:51:54;2.05;;;1.70;;
23376;SDS011;14353;46.070;13.222;2024-03-29T03:54:19;1.73;;;1.55;;
23376;SDS011;14353;46.070;13.222;2024-03-29T03:56:45;2.20;;;1.77;;
23376;SDS011;14353;46.070;13.222;2024-03-29T03:59:11;2.40;;;1.80;;
23376;SDS011;14353;46.070;13.222;2024-03-29T04:01:39;1.95;;;1.63;;
23376;SDS011;14353;46.070;13.222;2024-03-29T04:04:04;1.60;;;1.50;;
23376;SDS011;14353;46.070;13.222;2024-03-29T04:06:30;1.67;;;1.58;;
23376;SDS011;14353;46.070;13.222;2024-03-29T04:08:56;1.70;;;1.50;;
23376;SDS011;14353;46.070;13.222;2024-03-29T04:11:21;2.00;;;1.70;;
23376;SDS011;14353;46.070;13.222;2024-03-29T04:13:50;1.70;;;1.60;;
23376;SDS011;14353;46.070;13.222;2024-03-29T04:16:16;1.77;;;1.52;;
23376;SDS011;14353;46.070;13.222;2024-03-29T04:18:41;2.42;;;1.60;;
23376;SDS011;14353;46.070;13.222;2024-03-29T04:21:07;1.95;;;1.73;;
23376;SDS011;14353;46.070;13.222;2024-03-29T04:23:33;1.63;;;1.48;;
23376;SDS011;14353;46.070;13.222;2024-03-29T04:25:59;2.15;;;1.50;;
23376;SDS011;14353;46.070;13.222;2024-03-29T04:28:25;1.92;;;1.70;;
23376;SDS011;14353;46.070;13.222;2024-03-29T04:33:17;2.10;;;1.60;;
23376;SDS011;14353;46.070;13.222;2024-03-29T04:35:51;1.92;;;1.63;;
23376;SDS011;14353;46.070;13.222;2024-03-29T04:38:27;2.22;;;1.65;;
23376;SDS011;14353;46.070;13.222;2024-03-29T04:40:54;2.10;;;1.60;;
23376;SDS011;14353;46.070;13.222;2024-03-29T04:43:22;1.95;;;1.75;;
23376;SDS011;14353;46.070;13.222;2024-03-29T04:45:48;1.52;;;1.30;;
23376;SDS011;14353;46.070;13.222;2024-03-29T04:48:14;1.70;;;1.48;;
23376;SDS011;14353;46.070;13.222;2024-03-29T04:50:40;1.63;;;1.52;;
23376;SDS011;14353;46.070;13.222;2024-03-29T04:53:15;2.17;;;1.60;;
23376;SDS011;14353;46.070;13.222;2024-03-29T04:55:41;1.95;;;1.70;;
23376;SDS011;14353;46.070;13.222;2024-03-29T04:58:07;1.75;;;1.63;;
23376;SDS011;14353;46.070;13.222;2024-03-29T05:00:33;1.95;;;1.75;;
23376;SDS011;14353;46.070;13.222;2024-03-29T05:02:58;1.70;;;1.42;;
23376;SDS011;14353;46.070;13.222;2024-03-29T05:05:24;1.70;;;1.60;;
23376;SDS011;14353;46.070;13.222;2024-03-29T05:07:50;1.40;;;1.30;;
23376;SDS011;14353;46.070;13.222;2024-03-29T05:10:18;1.60;;;1.40;;
23376;SDS011;14353;46.070;13.222;2024-03-29T05:12:47;1.63;;;1.50;;
23376;SDS011;14353;46.070;13.222;2024-03-29T05:15:13;2.25;;;1.70;;
23376;SDS011;14353;46.070;13.222;2024-03-29T05:17:40;1.60;;;1.50;;
23376;SDS011;14353;46.070;13.222;2024-03-29T05:20:07;1.92;;;1.60;;
23376;SDS011;14353;46.070;13.222;2024-03-29T05:22:33;1.67;;;1.58;;
23376;SDS011;14353;46.070;13.222;2024-03-29T05:24:59;1.52;;;1.42;;
23376;SDS011;14353;46.070;13.222;2024-03-29T05:27:25;1.67;;;1.58;;
23376;SDS011;14353;46.070;13.222;2024-03-29T05:29:51;1.73;;;1.48;;
23376;SDS011;14353;46.070;13.222;2024-03-29T05:32:17;1.70;;;1.50;;
23376;SDS011;14353;46.070;13.222;2024-03-29T05:34:43;1.50;;;1.40;;
23376;SDS011;14353;46.070;13.222;2024-03-29T05:37:09;1.58;;;1.48;;
23376;SDS011;14353;46.070;13.222;2024-03-29T05:39:35;1.65;;;1.55;;
23376;SDS011;14353;46.070;13.222;2024-03-29T05:42:01;1.83;;;1.52;;
23376;SDS011;14353;46.070;13.222;2024-03-29T05:44:26;1.85;;;1.52;;
23376;SDS011;14353;46.070;13.222;2024-03-29T05:46:52;1.70;;;1.40;;
23376;SDS011;14353;46.070;13.222;2024-03-29T05:49:18;1.83;;;1.60;;
23376;SDS011;14353;46.070;13.222;2024-03-29T05:51:44;1.95;;;1.75;;
23376;SDS011;14353;46.070;13.222;2024-03-29T05:54:09;1.60;;;1.50;;
23376;SDS011;14353;46.070;13.222;2024-03-29T05:56:35;1.58;;;1.45;;
23376;SDS011;14353;46.070;13.222;2024-03-29T05:59:01;1.63;;;1.50;;
23376;SDS011;14353;46.070;13.222;2024-03-29T06:01:26;1.50;;;1.40;;
23376;SDS011;14353;46.070;13.222;2024-03-29T06:03:52;1.60;;;1.48;;
23376;SDS011;14353;46.070;13.222;2024-03-29T06:06:19;1.58;;;1.45;;
23376;SDS011;14353;46.070;13.222;2024-03-29T06:08:49;1.52;;;1.30;;
23376;SDS011;14353;46.070;13.222;2024-03-29T06:11:15;1.50;;;1.40;;
23376;SDS011;14353;46.070;13.222;2024-03-29T06:13:40;1.75;;;1.45;;
23376;SDS011;14353;46.070;13.222;2024-03-29T06:16:21;1.60;;;1.38;;
23376;SDS011;14353;46.070;13.222;2024-03-29T06:19:07;2.40;;;1.50;;
23376;SDS011;14353;46.070;13.222;2024-03-29T06:21:33;2.33;;;1.52;;
23376;SDS011;14353;46.070;13.222;2024-03-29T06:24:10;1.85;;;1.50;;
23376;SDS011;14353;46.070;13.222;2024-03-29T06:26:40;1.50;;;1.40;;
23376;SDS011;14353;46.070;13.222;2024-03-29T06:29:07;1.63;;;1.23;;
23376;SDS011;14353;46.070;13.222;2024-03-29T06:31:36;1.35;;;1.20;;
23376;SDS011;14353;46.070;13.222;2024-03-29T06:34:03;1.50;;;1.40;;
23376;SDS011;14353;46.070;13.222;2024-03-29T06:36:28;1.80;;;1.50;;
23376;SDS011;14353;46.070;13.222;2024-03-29T06:38:56;1.40;;;1.30;;
23376;SDS011;14353;46.070;13.222;2024-03-29T06:41:22;1.67;;;1.42;;
23376;SDS011;14353;46.070;13.222;2024-03-29T06:43:48;1.50;;;1.40;;
23376;SDS011;14353;46.070;13.222;2024-03-29T06:46:14;1.85;;;1.52;;
23376;SDS011;14353;46.070;13.222;2024-03-29T06:48:41;1.38;;;1.27;;
23376;SDS011;14353;46.070;13.222;2024-03-29T06:51:06;2.20;;;1.75;;
23376;SDS011;14353;46.070;13.222;2024-03-29T06:53:32;1.60;;;1.50;;
23376;SDS011;14353;46.070;13.222;2024-03-29T06:55:59;1.73;;;1.30;;
23376;SDS011;14353;46.070;13.222;2024-03-29T06:58:29;1.92;;;1.30;;
23376;SDS011;14353;46.070;13.222;2024-03-29T07:00:54;1.52;;;1.30;;
23376;SDS011;14353;46.070;13.222;2024-03-29T07:03:20;1.60;;;1.35;;
23376;SDS011;14353;46.070;13.222;2024-03-29T07:05:46;1.70;;;1.30;;
23376;SDS011;14353;46.070;13.222;2024-03-29T07:08:12;1.48;;;1.38;;
23376;SDS011;14353;46.070;13.222;2024-03-29T07:10:38;1.63;;;1.40;;
23376;SDS011;14353;46.070;13.222;2024-03-29T07:13:05;2.03;;;1.40;;
23376;SDS011;14353;46.070;13.222;2024-03-29T07:15:34;1.85;;;1.48;;
23376;SDS011;14353;46.070;13.222;2024-03-29T07:18:00;1.30;;;1.15;;
23376;SDS011;14353;46.070;13.222;2024-03-29T07:20:28;2.95;;;1.60;;
23376;SDS011;14353;46.070;13.222;2024-03-29T07:22:54;1.50;;;1.23;;
23376;SDS011;14353;46.070;13.222;2024-03-29T07:25:20;1.33;;;1.20;;
23376;SDS011;14353;46.070;13.222;2024-03-29T07:27:46;1.48;;;1.38;;
23376;SDS011;14353;46.070;13.222;2024-03-29T07:30:12;2.17;;;1.40;;
23376;SDS011;14353;46.070;13.222;2024-03-29T07:32:39;1.30;;;1.20;;
23376;SDS011;14353;46.070;13.222;2024-03-29T07:35:05;1.55;;;1.40;;
23376;SDS011;14353;46.070;13.222;2024-03-29T07:37:30;2.20;;;1.35;;
23376;SDS011;14353;46.070;13.222;2024-03-29T07:39:56;1.50;;;1.40;;
23376;SDS011;14353;46.070;13.222;2024-03-29T07:42:23;1.65;;;1.30;;
23376;SDS011;14353;46.070;13.222;2024-03-29T07:44:48;1.90;;;1.40;;
23376;SDS011;14353;46.070;13.222;2024-03-29T07:47:14;3.25;;;1.40;;
23376;SDS011;14353;46.070;13.222;2024-03-29T07:49:40;1.60;;;1.50;;
23376;SDS011;14353;46.070;13.222;2024-03-29T07:52:06;1.55;;;1.30;;
23376;SDS011;14353;46.070;13.222;2024-03-29T07:54:33;2.88;;;1.40;;
23376;SDS011;14353;46.070;13.222;2024-03-29T07:56:59;2.08;;;1.50;;
23376;SDS011;14353;46.070;13.222;2024-03-29T07:59:26;2.38;;;1.27;;
23376;SDS011;14353;46.070;13.222;2024-03-29T08:01:52;1.92;;;1.30;;
23376;SDS011;14353;46.070;13.222;2024-03-29T08:04:19;2.08;;;1.30;;
23376;SDS011;14353;46.070;13.222;2024-03-29T08:06:45;2.45;;;1.30;;
23376;SDS011;14353;46.070;13.222;2024-03-29T08:09:11;2.65;;;1.40;;
23376;SDS011;14353;46.070;13.222;2024-03-29T08:11:39;2.20;;;1.35;;
23376;SDS011;14353;46.070;13.222;2024-03-29T08:14:05;1.35;;;1.25;;
23376;SDS011;14353;46.070;13.222;2024-03-29T08:16:31;1.40;;;1.30;;
23376;SDS011;14353;46.070;13.222;2024-03-29T08:18:57;3.40;;;1.50;;
23376;SDS011;14353;46.070;13.222;2024-03-29T08:21:23;1.65;;;1.35;;
23376;SDS011;14353;46.070;13.222;2024-03-29T08:23:52;2.13;;;1.20;;
23376;SDS011;14353;46.070;13.222;2024-03-29T08:26:20;2.90;;;1.33;;
23376;SDS011;14353;46.070;13.222;2024-03-29T08:28:46;1.63;;;1.48;;
23376;SDS011;14353;46.070;13.222;2024-03-29T08:31:12;1.70;;;1.10;;
23376;SDS011;14353;46.070;13.222;2024-03-29T08:33:37;2.30;;;1.40;;
23376;SDS011;14353;46.070;13.222;2024-03-29T08:36:06;3.10;;;1.48;;
23376;SDS011;14353;46.070;13.222;2024-03-29T08:38:33;1.58;;;1.48;;
23376;SDS011;14353;46.070;13.222;2024-03-29T08:40:59;1.42;;;1.10;;
23376;SDS011;14353;46.070;13.222;2024-03-29T08:43:25;3.28;;;1.50;;
23376;SDS011;14353;46.070;13.222;2024-03-29T08:45:51;2.53;;;1.50;;
23376;SDS011;14353;46.070;13.222;2024-03-29T08:48:18;1.70;;;1.40;;
23376;SDS011;14353;46.070;13.222;2024-03-29T08:50:43;2.58;;;1.33;;
23376;SDS011;14353;46.070;13.222;2024-03-29T08:53:09;1.42;;;1.20;;
23376;SDS011;14353;46.070;13.222;2024-03-29T08:55:35;2.60;;;1.70;;
23376;SDS011;14353;46.070;13.222;2024-03-29T08:58:05;2.10;;;1.23;;
23376;SDS011;14353;46.070;13.222;2024-03-29T09:00:31;1.63;;;1.48;;
23376;SDS011;14353;46.070;13.222;2024-03-29T09:02:57;4.97;;;1.55;;
23376;SDS011;14353;46.070;13.222;2024-03-29T09:05:25;1.80;;;1.50;;
23376;SDS011;14353;46.070;13.222;2024-03-29T09:07:52;2.03;;;1.40;;
23376;SDS011;14353;46.070;13.222;2024-03-29T09:10:18;3.42;;;1.40;;
23376;SDS011;14353;46.070;13.222;2024-03-29T09:12:44;2.63;;;1.50;;
23376;SDS011;14353;46.070;13.222;2024-03-29T09:15:10;3.03;;;1.40;;
23376;SDS011;14353;46.070;13.222;2024-03-29T09:17:41;2.72;;;1.73;;
23376;SDS011;14353;46.070;13.222;2024-03-29T09:20:07;2.00;;;1.45;;
23376;SDS011;14353;46.070;13.222;2024-03-29T09:22:33;2.50;;;1.30;;
23376;SDS011;14353;46.070;13.222;2024-03-29T09:24:59;3.10;;;1.40;;
23376;SDS011;14353;46.070;13.222;2024-03-29T09:27:26;2.38;;;1.60;;
23376;SDS011;14353;46.070;13.222;2024-03-29T09:29:52;1.65;;;1.30;;
23376;SDS011;14353;46.070;13.222;2024-03-29T09:32:19;1.80;;;1.30;;
23376;SDS011;14353;46.070;13.222;2024-03-29T09:34:46;2.45;;;1.30;;
23376;SDS011;14353;46.070;13.222;2024-03-29T09:37:12;2.75;;;1.50;;
23376;SDS011;14353;46.070;13.222;2024-03-29T09:39:38;2.47;;;1.58;;
23376;SDS011;14353;46.070;13.222;2024-03-29T09:42:04;2.05;;;1.25;;
23376;SDS011;14353;46.070;13.222;2024-03-29T09:44:32;1.70;;;1.20;;
23376;SDS011;14353;46.070;13.222;2024-03-29T09:47:04;2.13;;;1.48;;
23376;SDS011;14353;46.070;13.222;2024-03-29T09:49:32;1.83;;;1.33;;
23376;SDS011;14353;46.070;13.222;2024-03-29T09:51:59;1.98;;;1.40;;
23376;SDS011;14353;46.070;13.222;2024-03-29T09:54:31;3.03;;;1.50;;
23376;SDS011;14353;46.070;13.222;2024-03-29T09:56:57;1.67;;;1.58;;
23376;SDS011;14353;46.070;13.222;2024-03-29T09:59:26;1.83;;;1.15;;
23376;SDS011;14353;46.070;13.222;2024-03-29T10:01:54;4.28;;;1.50;;
23376;SDS011;14353;46.070;13.222;2024-03-29T10:04:20;1.80;;;1.33;;
23376;SDS011;14353;46.070;13.222;2024-03-29T10:06:49;2.20;;;1.30;;
23376;SDS011;14353;46.070;13.222;2024-03-29T10:09:18;2.92;;;1.48;;
23376;SDS011;14353;46.070;13.222;2024-03-29T10:11:45;2.95;;;1.60;;
23376;SDS011;14353;46.070;13.222;2024-03-29T10:14:12;2.03;;;1.20;;
23376;SDS011;14353;46.070;13.222;2024-03-29T10:16:38;2.55;;;1.38;;
23376;SDS011;14353;46.070;13.222;2024-03-29T10:19:04;3.05;;;1.40;;
23376;SDS011;14353;46.070;13.222;2024-03-29T10:21:33;2.55;;;1.40;;
23376;SDS011;14353;46.070;13.222;2024-03-29T10:24:10;3.58;;;1.55;;
23376;SDS011;14353;46.070;13.222;2024-03-29T10:26:37;2.35;;;1.30;;
23376;SDS011;14353;46.070;13.222;2024-03-29T10:29:04;3.40;;;1.33;;
23376;SDS011;14353;46.070;13.222;2024-03-29T10:31:33;2.50;;;1.38;;
23376;SDS011;14353;46.070;13.222;2024-03-29T10:34:02;2.22;;;1.50;;
23376;SDS011;14353;46.070;13.222;2024-03-29T10:36:31;1.75;;;1.60;;
23376;SDS011;14353;46.070;13.222;2024-03-29T10:39:01;3.90;;;1.60;;
23376;SDS011;14353;46.070;13.222;2024-03-29T10:41:36;2.40;;;1.30;;
23376;SDS011;14353;46.070;13.222;2024-03-29T10:44:05;2.65;;;1.40;;
23376;SDS011;14353;46.070;13.222;2024-03-29T10:46:40;2.15;;;1.50;;
23376;SDS011;14353;46.070;13.222;2024-03-29T10:49:12;2.00;;;1.40;;
23376;SDS011;14353;46.070;13.222;2024-03-29T10:51:42;3.17;;;1.30;;
23376;SDS011;14353;46.070;13.222;2024-03-29T10:54:08;1.67;;;1.33;;
23376;SDS011;14353;46.070;13.222;2024-03-29T10:56:35;2.22;;;1.35;;
23376;SDS011;14353;46.070;13.222;2024-03-29T10:59:25;2.45;;;1.30;;
23376;SDS011;14353;46.070;13.222;2024-03-29T11:01:56;2.80;;;1.45;;
23376;SDS011;14353;46.070;13.222;2024-03-29T11:04:27;1.85;;;1.30;;
23376;SDS011;14353;46.070;13.222;2024-03-29T11:06:58;3.13;;;1.27;;
23376;SDS011;14353;46.070;13.222;2024-03-29T11:09:31;3.17;;;1.30;;
23376;SDS011;14353;46.070;13.222;2024-03-29T11:11:58;2.28;;;1.30;;
23376;SDS011;14353;46.070;13.222;2024-03-29T11:14:30;1.65;;;1.40;;
23376;SDS011;14353;46.070;13.222;2024-03-29T11:17:01;1.92;;;1.50;;
23376;SDS011;14353;46.070;13.222;2024-03-29T11:19:29;2.17;;;1.35;;
23376;SDS011;14353;46.070;13.222;2024-03-29T11:21:55;1.75;;;1.20;;
23376;SDS011;14353;46.070;13.222;2024-03-29T11:24:24;2.17;;;1.40;;
23376;SDS011;14353;46.070;13.222;2024-03-29T11:26:53;1.92;;;1.33;;
23376;SDS011;14353;46.070;13.222;2024-03-29T11:29:19;2.53;;;1.42;;
23376;SDS011;14353;46.070;13.222;2024-03-29T11:31:46;3.17;;;1.27;;
23376;SDS011;14353;46.070;13.222;2024-03-29T11:34:14;2.05;;;1.45;;
23376;SDS011;14353;46.070;13.222;2024-03-29T11:36:44;2.17;;;1.48;;
23376;SDS011;14353;46.070;13.222;2024-03-29T11:39:19;1.45;;;1.23;;
23376;SDS011;14353;46.070;13.222;2024-03-29T11:41:48;1.88;;;1.40;;
23376;SDS011;14353;46.070;13.222;2024-03-29T11:44:15;2.05;;;1.40;;
23376;SDS011;14353;46.070;13.222;2024-03-29T11:46:42;2.20;;;1.20;;
23376;SDS011;14353;46.070;13.222;2024-03-29T11:49:09;2.25;;;1.30;;
23376;SDS011;14353;46.070;13.222;2024-03-29T11:51:35;2.38;;;1.55;;
23376;SDS011;14353;46.070;13.222;2024-03-29T11:54:01;2.53;;;1.48;;
23376;SDS011;14353;46.070;13.222;2024-03-29T11:56:27;1.70;;;1.52;;
23376;SDS011;14353;46.070;13.222;2024-03-29T11:58:53;1.73;;;1.20;;
23376;SDS011;14353;46.070;13.222;2024-03-29T12:01:24;1.73;;;1.35;;
23376;SDS011;14353;46.070;13.222;2024-03-29T12:03:54;2.00;;;1.50;;
23376;SDS011;14353;46.070;13.222;2024-03-29T12:06:20;1.63;;;1.17;;
23376;SDS011;14353;46.070;13.222;2024-03-29T12:08:46;1.77;;;1.30;;
23376;SDS011;14353;46.070;13.222;2024-03-29T12:11:14;1.70;;;1.20;;
23376;SDS011;14353;46.070;13.222;2024-03-29T12:13:39;1.60;;;1.40;;
23376;SDS011;14353;46.070;13.222;2024-03-29T12:16:06;1.45;;;1.27;;
23376;SDS011;14353;46.070;13.222;2024-03-29T12:18:33;1.52;;;1.33;;
23376;SDS011;14353;46.070;13.222;2024-03-29T12:20:58;1.50;;;1.10;;
23376;SDS011;14353;46.070;13.222;2024-03-29T12:23:24;2.13;;;1.40;;
23376;SDS011;14353;46.070;13.222;2024-03-29T12:25:53;1.98;;;1.30;;
23376;SDS011;14353;46.070;13.222;2024-03-29T12:28:22;1.85;;;1.27;;
23376;SDS011;14353;46.070;13.222;2024-03-29T12:30:49;2.08;;;1.30;;
23376;SDS011;14353;46.070;13.222;2024-03-29T12:33:18;2.22;;;1.30;;
23376;SDS011;14353;46.070;13.222;2024-03-29T12:35:45;2.13;;;1.20;;
23376;SDS011;14353;46.070;13.222;2024-03-29T12:38:15;1.65;;;1.30;;
23376;SDS011;14353;46.070;13.222;2024-03-29T12:40:42;1.42;;;1.13;;
23376;SDS011;14353;46.070;13.222;2024-03-29T12:43:10;2.42;;;1.30;;
23376;SDS011;14353;46.070;13.222;2024-03-29T12:45:36;1.40;;;1.20;;
23376;SDS011;14353;46.070;13.222;2024-03-29T12:48:09;2.17;;;1.30;;
23376;SDS011;14353;46.070;13.222;2024-03-29T12:50:35;1.45;;;1.30;;
23376;SDS011;14353;46.070;13.222;2024-03-29T12:53:01;2.38;;;1.20;;
23376;SDS011;14353;46.070;13.222;2024-03-29T12:55:31;1.95;;;1.15;;
23376;SDS011;14353;46.070;13.222;2024-03-29T12:58:00;1.73;;;1.20;;
23376;SDS011;14353;46.070;13.222;2024-03-29T13:00:27;2.13;;;1.42;;
23376;SDS011;14353;46.070;13.222;2024-03-29T13:02:53;1.77;;;1.30;;
23376;SDS011;14353;46.070;13.222;2024-03-29T13:05:18;2.30;;;1.30;;
23376;SDS011;14353;46.070;13.222;2024-03-29T13:07:44;1.60;;;1.23;;
23376;SDS011;14353;46.070;13.222;2024-03-29T13:10:10;2.03;;;1.30;;
23376;SDS011;14353;46.070;13.222;2024-03-29T13:12:43;2.80;;;1.42;;
23376;SDS011;14353;46.070;13.222;2024-03-29T13:15:17;2.53;;;1.15;;
23376;SDS011;14353;46.070;13.222;2024-03-29T13:20:11;2.03;;;1.30;;
23376;SDS011;14353;46.070;13.222;2024-03-29T13:22:37;2.42;;;1.38;;
23376;SDS011;14353;46.070;13.222;2024-03-29T13:25:04;1.95;;;1.55;;
23376;SDS011;14353;46.070;13.222;2024-03-29T13:27:32;1.73;;;1.33;;
23376;SDS011;14353;46.070;13.222;2024-03-29T13:29:58;2.03;;;1.38;;
23376;SDS011;14353;46.070;13.222;2024-03-29T13:32:23;2.55;;;1.20;;
23376;SDS011;14353;46.070;13.222;2024-03-29T13:34:51;1.85;;;1.20;;
23376;SDS011;14353;46.070;13.222;2024-03-29T13:37:17;3.05;;;1.20;;
23376;SDS011;14353;46.070;13.222;2024-03-29T13:39:42;1.85;;;1.20;;
23376;SDS011;14353;46.070;13.222;2024-03-29T13:42:08;1.33;;;1.20;;
23376;SDS011;14353;46.070;13.222;2024-03-29T13:44:34;2.67;;;1.30;;
23376;SDS011;14353;46.070;13.222;2024-03-29T13:46:59;1.30;;;1.20;;
23376;SDS011;14353;46.070;13.222;2024-03-29T13:49:29;2.47;;;1.10;;
23376;SDS011;14353;46.070;13.222;2024-03-29T13:51:55;1.75;;;1.10;;
23376;SDS011;14353;46.070;13.222;2024-03-29T13:54:21;1.98;;;1.13;;
23376;SDS011;14353;46.070;13.222;2024-03-29T13:56:49;1.67;;;1.05;;
23376;SDS011;14353;46.070;13.222;2024-03-29T13:59:14;1.80;;;1.20;;
23376;SDS011;14353;46.070;13.222;2024-03-29T14:01:40;1.63;;;1.15;;
23376;SDS011;14353;46.070;13.222;2024-03-29T14:04:06;2.05;;;1.20;;
23376;SDS011;14353;46.070;13.222;2024-03-29T14:06:32;1.30;;;1.17;;
23376;SDS011;14353;46.070;13.222;2024-03-29T14:08:58;2.95;;;1.35;;
23376;SDS011;14353;46.070;13.222;2024-03-29T14:11:23;1.65;;;1.10;;
23376;SDS011;14353;46.070;13.222;2024-03-29T14:13:49;1.42;;;1.02;;
23376;SDS011;14353;46.070;13.222;2024-03-29T14:16:21;1.70;;;1.20;;
23376;SDS011;14353;46.070;13.222;2024-03-29T14:18:47;2.83;;;1.52;;
23376;SDS011;14353;46.070;13.222;2024-03-29T14:21:12;1.50;;;1.20;;
23376;SDS011;14353;46.070;13.222;2024-03-29T14:23:38;2.05;;;1.23;;
23376;SDS011;14353;46.070;13.222;2024-03-29T14:26:05;1.33;;;1.23;;
23376;SDS011;14353;46.070;13.222;2024-03-29T14:28:31;2.38;;;1.27;;
23376;SDS011;14353;46.070;13.222;2024-03-29T14:30:56;1.48;;;1.15;;
23376;SDS011;14353;46.070;13.222;2024-03-29T14:33:22;2.63;;;1.13;;
23376;SDS011;14353;46.070;13.222;2024-03-29T14:35:48;1.98;;;1.25;;
23376;SDS011;14353;46.070;13.222;2024-03-29T14:38:14;1.70;;;1.30;;